Time;durP1;ratioP1;P1;durP2;ratioP2;P2;SDS_P1;SDS_P2;PMS_P1;PMS_P2;Temp;Humidity;BMP_temperature;BMP_pressure;BME280_temperature;BME280_humidity;BME280_pressure;Samples;Min_cycle;Max_cycle;Signal;HPM_P1;HPM_P2
2022/06/03 00:01:07;;;;;;;11.90;9.05;;;;;;;11.29;71.14;101958.22;5075194;28;20028;-88
2022/06/03 00:03:39;;;;;;;12.35;8.88;;;;;;;11.26;71.09;101954.94;5075356;28;20107;-89
2022/06/03 00:06:27;;;;;;;10.75;8.90;;;;;;;11.30;70.57;101961.63;5075387;28;20028;-89
2022/06/03 00:09:12;;;;;;;11.98;8.45;;;;;;;11.36;71.25;101951.00;5072872;28;20045;-90
2022/06/03 00:15:49;;;;;;;13.57;9.07;;;;;;;11.43;70.12;101957.56;5074239;28;20377;-90
2022/06/03 00:18:52;;;;;;;11.45;9.07;;;;;;;11.41;70.29;101949.88;5074827;28;20048;-90
2022/06/03 00:22:13;;;;;;;11.50;9.32;;;;;;;11.42;70.50;101950.72;5074892;28;20025;-90
2022/06/03 00:28:34;;;;;;;12.27;8.60;;;;;;;10.10;70.23;101733.06;5074814;28;20035;-90
2022/06/03 00:35:13;;;;;;;11.45;8.57;;;;;;;11.40;70.44;101950.78;5032907;28;20103;-91
2022/06/03 00:48:34;;;;;;;12.00;9.63;;;;;;;11.34;70.19;101942.50;5032358;28;20048;-89
2022/06/03 00:51:49;;;;;;;13.63;8.70;;;;;;;11.29;70.93;101942.69;5032029;28;20049;-89
2022/06/03 00:58:25;;;;;;;13.20;9.55;;;;;;;11.28;70.88;101940.19;5051533;28;20115;-91
2022/06/03 01:01:34;;;;;;;11.77;9.05;;;;;;;11.26;70.79;101934.25;5051805;28;20079;-90
2022/06/03 01:12:28;;;;;;;11.48;9.20;;;;;;;11.25;70.54;101927.41;4975020;28;20055;-91
2022/06/03 01:15:28;;;;;;;11.70;9.30;;;;;;;11.21;70.84;101921.56;4976123;28;20494;-90
2022/06/03 01:18:13;;;;;;;10.93;9.18;;;;;;;11.22;71.26;101928.41;4974733;28;20038;-91
2022/06/03 01:48:34;;;;;;;13.23;9.10;;;;;;;11.53;70.02;101911.41;4956421;28;20057;-89
2022/06/03 02:12:53;;;;;;;11.40;9.77;;;;;;;11.16;72.20;101893.34;5073190;28;20067;-85
2022/06/03 02:15:57;;;;;;;13.82;9.48;;;;;;;10.20;72.41;101744.63;5072672;28;20465;-84
2022/06/03 02:22:43;;;;;;;12.90;9.60;;;;;;;10.99;72.92;101880.38;5073096;28;20039;-90
2022/06/03 02:26:04;;;;;;;13.02;10.07;;;;;;;10.88;73.86;101877.47;5055001;28;20024;-90
2022/06/03 02:32:41;;;;;;;11.85;9.60;;;;;;;10.68;74.99;101881.00;5072408;28;20079;-90
2022/06/03 02:42:22;;;;;;;13.70;9.57;;;;;;;10.51;75.56;101875.75;5072755;28;20036;-90
2022/06/03 02:48:49;;;;;;;10.80;9.35;;;;;;;10.31;76.33;101877.50;4990810;28;20490;-90
2022/06/03 02:58:59;;;;;;;13.52;10.57;;;;;;;10.03;78.28;101872.72;4991261;28;20641;-85
2022/06/03 03:02:35;;;;;;;13.23;10.55;;;;;;;9.97;77.85;101864.41;4955372;28;20039;-90
2022/06/03 03:12:46;;;;;;;13.38;10.93;;;;;;;9.81;79.11;101874.53;4971216;28;20082;-87
2022/06/03 03:19:07;;;;;;;13.18;11.75;;;;;;;9.78;79.46;101875.50;4971389;28;20454;-89
2022/06/03 03:22:17;;;;;;;14.77;12.02;;;;;;;9.55;79.13;101841.31;4975392;28;20446;-86
2022/06/03 03:25:19;;;;;;;14.13;12.27;;;;;;;9.72;79.21;101860.28;4987511;28;20370;-87
2022/06/03 03:28:28;;;;;;;13.50;11.52;;;;;;;9.70;79.89;101861.28;5035894;28;20397;-89
2022/06/03 03:31:11;;;;;;;13.82;11.73;;;;;;;9.48;80.34;101826.09;5036019;28;20034;-89
2022/06/03 03:34:02;;;;;;;14.88;12.35;;;;;;;9.68;80.38;101858.75;5037838;28;20029;-91
2022/06/03 03:36:55;;;;;;;17.00;12.63;;;;;;;9.52;80.26;101829.34;5056041;28;20025;-85
2022/06/03 03:39:50;;;;;;;14.63;12.13;;;;;;;9.64;80.26;101848.66;5058837;28;20024;-88
2022/06/03 03:42:52;;;;;;;15.48;12.52;;;;;;;9.67;80.25;101858.81;5055827;28;20021;-87
2022/06/03 03:45:36;;;;;;;17.52;12.80;;;;;;;9.66;80.51;101847.69;5055576;28;20037;-84
2022/06/03 03:48:39;;;;;;;18.30;12.90;;;;;;;9.68;80.42;101855.34;5056175;28;20021;-86
2022/06/03 03:51:22;;;;;;;15.15;12.65;;;;;;;9.69;80.47;101857.00;5058250;28;20025;-85
2022/06/03 03:54:24;;;;;;;14.82;12.23;;;;;;;9.67;80.57;101853.66;5057808;28;20532;-86
2022/06/03 03:57:02;;;;;;;15.60;12.85;;;;;;;9.73;80.59;101848.22;5057182;28;20499;-88
2022/06/03 03:59:54;;;;;;;15.68;12.95;;;;;;;9.75;80.15;101852.44;5065541;28;20041;-85
2022/06/03 04:02:54;;;;;;;17.75;14.48;;;;;;;9.78;80.37;101852.31;5058761;28;20044;-90
2022/06/03 04:05:57;;;;;;;17.67;13.07;;;;;;;9.70;79.90;101832.91;5057668;28;20032;-88
2022/06/03 04:09:02;;;;;;;15.07;13.05;;;;;;;9.87;80.00;101845.91;5075410;28;20480;-86
2022/06/03 04:11:38;;;;;;;19.60;13.50;;;;;;;9.94;80.56;101837.00;5077152;28;20039;-88
2022/06/03 04:21:14;;;;;;;16.55;12.57;;;;;;;10.28;78.72;101841.50;4994259;28;20049;-87
2022/06/03 04:37:44;;;;;;;14.63;10.38;;;;;;;14.04;64.11;101823.97;4917670;29;20087;-90
2022/06/03 04:51:00;;;;;;;17.17;11.52;;;;;;;12.52;69.24;101836.31;4916472;29;20043;-88
2022/06/03 05:14:53;;;;;;;12.93;8.55;;;;;;;20.27;48.24;101641.59;4993589;28;20501;-81
2022/06/03 05:18:00;;;;;;;9.63;8.40;;;;;;;22.27;46.63;101837.41;4992492;28;20065;-81
2022/06/03 05:21:09;;;;;;;12.90;8.65;;;;;;;22.88;43.35;101831.44;4991902;28;20054;-82
2022/06/03 05:26:35;;;;;;;8.80;7.72;;;;;;;23.86;40.02;101837.31;5049737;23;20065;-88
2022/06/03 05:29:33;;;;;;;10.13;7.90;;;;;;;24.40;39.57;101830.75;5016730;28;20037;-88
2022/06/03 05:32:23;;;;;;;10.57;8.13;;;;;;;24.54;36.07;101822.16;5018956;28;20034;-89
2022/06/03 05:34:57;;;;;;;10.55;7.82;;;;;;;24.53;37.57;101820.53;5035561;28;20033;-89
2022/06/03 05:38:03;;;;;;;9.20;7.97;;;;;;;24.93;36.80;101818.88;5032610;28;20529;-91
2022/06/03 05:40:45;;;;;;;9.88;7.82;;;;;;;24.03;36.25;101673.63;5035356;28;20033;-88
2022/06/03 05:44:04;;;;;;;11.65;7.63;;;;;;;24.93;37.26;101812.75;5016155;28;20057;-88
2022/06/03 05:47:13;;;;;;;8.98;7.70;;;;;;;25.36;36.71;101811.53;5033514;28;20124;-88
2022/06/03 05:50:21;;;;;;;12.15;7.78;;;;;;;25.01;36.07;101675.34;5033419;28;20079;-90
2022/06/03 05:59:54;;;;;;;12.15;8.45;;;;;;;27.21;34.24;101814.22;5033036;28;19919;-90
2022/06/03 06:03:12;;;;;;;10.13;6.93;;;;;;;26.90;34.06;101809.03;5031970;28;20032;-91
2022/06/03 06:06:15;;;;;;;9.02;7.25;;;;;;;27.24;32.89;101814.69;5033434;28;20082;-88
2022/06/03 06:09:36;;;;;;;10.55;7.20;;;;;;;27.54;32.52;101815.50;5033391;28;20033;-90
2022/06/03 06:12:48;;;;;;;9.95;7.45;;;;;;;27.77;32.25;101818.06;5033163;28;20120;-88
2022/06/03 06:19:10;;;;;;;10.25;7.35;;;;;;;27.60;32.46;101745.75;5033012;28;20036;-84
2022/06/03 06:21:56;;;;;;;10.90;7.90;;;;;;;27.79;30.83;101812.56;4951207;28;20068;-82
2022/06/03 06:24:34;;;;;;;13.10;7.50;;;;;;;27.61;30.41;101824.38;4971779;28;20058;-83
2022/06/03 06:27:27;;;;;;;11.48;8.10;;;;;;;27.30;32.36;101823.72;4971728;28;20053;-81
2022/06/03 06:30:13;;;;;;;9.27;7.60;;;;;;;27.64;31.73;101786.03;4971902;28;20031;-83
2022/06/03 06:32:54;;;;;;;12.00;7.50;;;;;;;28.29;30.27;101823.16;4971768;28;20560;-83
2022/06/03 06:35:49;;;;;;;9.85;7.55;;;;;;;29.02;30.66;101821.19;4971587;28;20062;-84
2022/06/03 06:38:27;;;;;;;9.68;6.78;;;;;;;29.20;29.03;101795.88;4971904;28;20043;-82
2022/06/03 06:41:16;;;;;;;9.50;7.18;;;;;;;29.57;28.87;101813.31;4971695;28;20371;-79
2022/06/03 06:44:00;;;;;;;8.98;6.95;;;;;;;28.78;28.74;101787.81;4971816;28;20023;-79
2022/06/03 06:46:50;;;;;;;10.57;7.30;;;;;;;29.04;30.71;101807.69;4971900;28;20510;-85
2022/06/03 06:49:29;;;;;;;8.80;6.75;;;;;;;29.14;29.34;101816.13;4971787;28;20122;-86
2022/06/03 06:52:15;;;;;;;8.80;7.13;;;;;;;29.48;27.93;101798.50;4971522;28;20121;-89
2022/06/03 06:55:05;;;;;;;9.07;7.00;;;;;;;29.63;27.36;101775.25;4973309;28;20031;-87
2022/06/03 06:57:34;;;;;;;10.15;7.43;;;;;;;29.57;27.85;101814.13;4994795;28;20048;-84
2022/06/03 07:00:28;;;;;;;10.05;7.20;;;;;;;29.82;27.65;101810.97;5036563;28;20105;-83
2022/06/03 07:03:34;;;;;;;8.82;6.78;;;;;;;30.24;26.55;101804.53;5036651;28;20140;-84
2022/06/03 07:06:06;;;;;;;9.80;7.35;;;;;;;30.04;27.36;101811.63;5036257;28;20033;-85
2022/06/03 07:08:48;;;;;;;9.48;7.30;;;;;;;29.66;27.11;101750.91;5036570;28;20025;-87
2022/06/03 07:11:46;;;;;;;10.93;7.75;;;;;;;29.15;27.17;101777.88;5036007;28;20473;-86
2022/06/03 07:14:18;;;;;;;10.32;7.25;;;;;;;29.38;26.19;101801.53;4978262;28;20093;-84
2022/06/03 07:20:18;;;;;;;9.52;7.53;;;;;;;29.91;27.83;101809.78;4994763;28;20161;-82
2022/06/03 07:22:43;;;;;;;9.20;7.53;;;;;;;29.70;26.51;101742.31;4994696;28;20026;-85
2022/06/03 07:25:15;;;;;;;9.43;6.70;;;;;;;29.69;26.34;101742.50;4977522;28;20057;-85
2022/06/03 07:27:43;;;;;;;10.02;7.40;;;;;;;30.19;26.51;101801.66;4978294;28;20045;-86
2022/06/03 07:30:22;;;;;;;9.60;7.78;;;;;;;30.06;26.49;101769.63;4994433;28;20038;-82
2022/06/03 07:32:52;;;;;;;8.95;7.28;;;;;;;29.41;26.95;101799.31;4994267;28;20128;-87
2022/06/03 07:35:23;;;;;;;8.68;7.70;;;;;;;28.71;27.65;101786.13;4994150;28;20116;-77
2022/06/03 07:37:57;;;;;;;11.63;8.00;;;;;;;26.96;29.81;101761.44;4977731;28;20034;-82
2022/06/03 07:40:43;;;;;;;9.23;8.18;;;;;;;25.65;32.56;101776.56;4994003;28;20489;-83
2022/06/03 07:43:36;;;;;;;12.40;8.10;;;;;;;24.27;34.42;101770.44;4994198;28;20084;-78
2022/06/03 07:46:11;;;;;;;16.67;8.75;;;;;;;22.72;37.52;101726.78;4994254;28;20030;-85
2022/06/03 07:48:38;;;;;;;13.05;8.80;;;;;;;22.31;38.79;101812.44;4993987;28;20030;-88
2022/06/03 07:51:09;;;;;;;10.30;8.45;;;;;;;21.44;40.71;101791.84;5022687;28;20056;-85
2022/06/03 07:54:06;;;;;;;11.43;9.23;;;;;;;20.85;42.14;101770.13;5035638;28;20425;-83
2022/06/03 07:56:37;;;;;;;16.52;10.15;;;;;;;20.20;43.68;101734.06;5034416;28;20053;-85
2022/06/03 08:03:14;;;;;;;12.93;10.15;;;;;;;19.16;44.57;101612.19;5035979;28;20076;-81
2022/06/03 08:15:49;;;;;;;14.15;11.00;;;;;;;18.65;46.13;101593.94;4975417;28;20054;-84
2022/06/03 08:18:59;;;;;;;13.02;9.93;;;;;;;19.98;46.42;101777.94;4975647;28;20035;-83
2022/06/03 08:21:41;;;;;;;12.27;10.88;;;;;;;19.14;46.71;101635.88;4900657;29;20500;-88
2022/06/03 08:24:27;;;;;;;12.30;11.00;;;;;;;20.02;46.38;101770.59;4897224;29;20112;-87
2022/06/03 08:26:57;;;;;;;13.32;11.43;;;;;;;19.97;46.60;101770.19;4897642;29;20477;-87
2022/06/03 08:29:22;;;;;;;13.83;10.80;;;;;;;20.02;47.63;101755.69;4897516;29;20028;-85
2022/06/03 08:31:51;;;;;;;12.35;10.90;;;;;;;19.92;46.92;101730.44;4897458;29;20103;-85
2022/06/03 08:34:25;;;;;;;12.35;11.02;;;;;;;20.10;46.58;101762.91;4897710;29;20489;-83
2022/06/03 08:36:52;;;;;;;13.10;9.98;;;;;;;19.70;46.72;101724.47;4897181;29;20021;-88
2022/06/03 08:39:25;;;;;;;11.43;10.23;;;;;;;19.97;47.36;101750.06;4897153;29;20148;-87
2022/06/03 08:42:05;;;;;;;14.52;10.48;;;;;;;20.14;47.39;101761.66;4897368;29;20092;-86
2022/06/03 08:45:04;;;;;;;11.75;10.05;;;;;;;20.09;48.45;101769.13;4897602;29;20041;-84
2022/06/03 08:47:38;;;;;;;10.88;9.30;;;;;;;20.13;48.57;101764.41;4896741;29;20420;-84
2022/06/03 08:50:25;;;;;;;12.05;10.70;;;;;;;19.98;48.15;101764.00;4896657;29;20462;-87
2022/06/03 08:53:07;;;;;;;12.60;9.75;;;;;;;19.69;48.31;101703.63;4934866;29;20509;-88
2022/06/03 08:55:44;;;;;;;12.55;9.85;;;;;;;19.80;47.78;101702.69;4935339;29;20039;-83
2022/06/03 08:58:25;;;;;;;11.60;9.23;;;;;;;19.98;47.36;101716.78;4982678;28;20037;-91
2022/06/03 09:00:56;;;;;;;11.35;9.52;;;;;;;20.02;45.84;101744.38;5014483;28;20022;-86
2022/06/03 09:03:25;;;;;;;10.57;9.07;;;;;;;19.81;45.17;101702.56;5014591;28;20030;-85
2022/06/03 09:06:11;;;;;;;10.82;8.50;;;;;;;20.28;45.93;101771.75;5014698;28;20492;-82
2022/06/03 09:08:57;;;;;;;11.85;8.57;;;;;;;20.02;46.50;101720.78;5014123;28;20026;-78
2022/06/03 09:11:41;;;;;;;10.48;8.10;;;;;;;20.37;45.99;101771.91;5014185;28;20088;-86
2022/06/03 09:14:09;;;;;;;9.38;7.80;;;;;;;20.18;45.35;101717.66;5014363;28;20021;-80
2022/06/03 09:16:37;;;;;;;11.20;7.88;;;;;;;20.09;44.99;101700.09;5014087;28;20021;-83
2022/06/03 09:19:19;;;;;;;9.23;7.80;;;;;;;20.69;45.97;101767.22;5013762;28;20026;-82
2022/06/03 09:21:51;;;;;;;10.50;8.60;;;;;;;20.45;45.13;101722.22;5013966;28;20032;-84
2022/06/03 09:24:21;;;;;;;10.20;7.47;;;;;;;20.49;45.47;101719.19;5013850;28;20402;-84
2022/06/03 09:26:52;;;;;;;10.68;7.18;;;;;;;20.89;44.47;101760.16;5033071;28;20041;-89
2022/06/03 09:29:20;;;;;;;9.07;6.97;;;;;;;20.69;43.90;101714.75;5033735;28;20385;-87
2022/06/03 09:31:50;;;;;;;8.27;6.07;;;;;;;21.01;44.77;101758.19;5033629;28;20022;-78
2022/06/03 09:34:22;;;;;;;7.78;5.22;;;;;;;21.00;46.48;101731.09;5033954;28;20025;-87
2022/06/03 09:36:48;;;;;;;8.63;5.25;;;;;;;21.15;43.32;101734.13;5033678;28;20029;-87
2022/06/03 09:39:19;;;;;;;8.55;5.72;;;;;;;21.41;43.58;101750.91;5033343;28;20029;-86
2022/06/03 09:41:53;;;;;;;8.73;5.53;;;;;;;20.98;43.44;101684.97;5016113;28;20025;-85
2022/06/03 09:44:28;;;;;;;8.90;6.40;;;;;;;20.63;41.97;101632.13;5033194;28;20030;-86
2022/06/03 09:47:02;;;;;;;8.05;5.47;;;;;;;21.25;43.13;101727.03;5033423;28;20021;-83
2022/06/03 09:49:30;;;;;;;6.70;4.35;;;;;;;21.33;39.25;101748.16;5015755;28;20121;-84
2022/06/03 09:52:12;;;;;;;7.22;4.50;;;;;;;20.98;42.26;101693.66;5033355;28;20036;-86
2022/06/03 09:55:15;;;;;;;9.48;5.00;;;;;;;21.19;41.12;101731.06;5033306;28;20492;-83
2022/06/03 09:58:00;;;;;;;5.72;3.60;;;;;;;20.39;41.45;101579.28;4972060;28;20063;-81
2022/06/03 10:01:10;;;;;;;7.20;3.33;;;;;;;20.35;41.48;101567.41;4956359;28;20073;-82
2022/06/03 10:04:15;;;;;;;6.25;3.55;;;;;;;21.04;40.83;101694.88;4895934;29;20065;-84
2022/06/03 10:06:46;;;;;;;5.35;3.65;;;;;;;21.17;39.90;101693.59;4895894;29;20032;-87
2022/06/03 10:18:20;;;;;;;9.05;4.15;;;;;;;21.56;38.72;101726.78;4895974;29;20104;-87
2022/06/03 10:24:31;;;;;;;5.75;3.70;;;;;;;21.65;38.83;101704.88;4889454;29;20126;-83
2022/06/03 10:27:00;;;;;;;6.95;3.90;;;;;;;21.81;37.69;101712.94;4895183;29;20056;-86
2022/06/03 10:29:29;;;;;;;6.13;3.70;;;;;;;21.84;40.53;101706.56;4895138;29;20093;-83
2022/06/03 10:32:35;;;;;;;5.95;3.05;;;;;;;21.98;39.62;101720.00;4895365;29;20048;-84
2022/06/03 10:35:28;;;;;;;6.07;3.20;;;;;;;20.95;37.63;101519.84;4927988;29;20044;-83
2022/06/03 10:38:08;;;;;;;3.00;2.58;;;;;;;21.26;37.68;101539.56;4918080;29;20611;-83
2022/06/03 10:40:55;;;;;;;5.63;3.20;;;;;;;22.24;36.84;101701.72;4917356;29;20051;-83
2022/06/03 10:43:30;;;;;;;5.15;3.13;;;;;;;22.27;36.70;101690.06;4933285;29;20028;-81
2022/06/03 10:46:15;;;;;;;7.53;4.00;;;;;;;22.55;38.24;101699.50;4933469;29;20067;-80
2022/06/03 10:48:42;;;;;;;5.10;3.13;;;;;;;22.50;35.29;101670.16;4933405;29;20039;-79
2022/06/03 11:03:41;;;;;;;5.95;3.53;;;;;;;21.83;37.74;101608.44;4971541;28;20521;-78
2022/06/03 11:06:14;;;;;;;6.75;4.35;;;;;;;21.98;37.28;101648.19;4971357;28;20122;-79
2022/06/03 11:08:50;;;;;;;6.63;3.50;;;;;;;22.31;38.49;101694.84;4971028;28;20066;-75
2022/06/03 11:11:45;;;;;;;5.93;3.42;;;;;;;22.35;37.59;101694.56;4955103;28;20038;-80
2022/06/03 11:14:25;;;;;;;7.28;3.78;;;;;;;22.27;40.02;101669.00;4971342;28;20135;-80
2022/06/03 11:17:21;;;;;;;7.33;5.60;;;;;;;22.24;38.38;101680.66;4971322;28;20122;-82
2022/06/03 11:19:53;;;;;;;6.43;4.28;;;;;;;21.96;37.59;101648.34;4955248;28;20102;-78
2022/06/03 11:22:21;;;;;;;;;;;;;;;22.22;38.97;101680.00;4971692;28;20054;-80
2022/06/03 11:24:53;;;;;;;5.60;2.97;;;;;;;22.20;37.46;101660.88;4954789;28;19937;-81
2022/06/03 11:27:23;;;;;;;4.68;2.60;;;;;;;22.12;37.78;101633.69;4976530;28;20042;-84
2022/06/03 11:29:52;;;;;;;4.00;2.17;;;;;;;21.87;34.84;101604.53;5014797;28;20034;-81
2022/06/03 11:32:18;;;;;;;3.03;2.20;;;;;;;21.94;34.00;101584.53;5032393;28;20033;-84
2022/06/03 11:35:09;;;;;;;2.75;1.95;;;;;;;22.71;33.86;101671.59;5013946;28;20493;-80
2022/06/03 11:37:38;;;;;;;;;;;;;;;22.89;34.83;101670.59;5014492;28;20022;-80
2022/06/03 11:40:33;;;;;;;3.85;2.42;;;;;;;23.04;34.21;101665.59;5032518;28;20297;-83
2022/06/03 11:43:05;;;;;;;5.28;2.83;;;;;;;23.25;32.59;101672.25;5015939;28;20036;-85
2022/06/03 11:45:39;;;;;;;5.35;2.67;;;;;;;23.17;33.38;101673.03;5017927;28;20025;-86
2022/06/03 11:48:35;;;;;;;4.65;3.22;;;;;;;23.05;33.79;101653.22;5018162;28;20025;-86
2022/06/03 11:51:07;;;;;;;3.30;2.13;;;;;;;22.95;33.63;101627.00;5016113;28;20037;-87
2022/06/03 11:53:37;;;;;;;4.85;2.15;;;;;;;23.24;31.68;101663.53;5035358;28;20033;-88
2022/06/03 11:56:06;;;;;;;3.35;2.35;;;;;;;23.13;32.34;101654.09;5017533;28;20489;-86
2022/06/03 11:58:48;;;;;;;5.20;2.55;;;;;;;22.90;34.11;101640.63;5017540;28;20108;-83
2022/06/03 12:01:24;;;;;;;4.25;2.33;;;;;;;23.11;35.05;101669.25;5018458;28;20092;-86
2022/06/03 12:03:56;;;;;;;3.30;2.40;;;;;;;23.04;35.38;101647.16;5017590;28;20034;-81
2022/06/03 12:06:40;;;;;;;3.70;2.90;;;;;;;23.21;34.99;101669.13;5035233;28;20036;-85
2022/06/03 12:09:35;;;;;;;4.07;2.80;;;;;;;23.26;35.65;101660.72;5035284;28;20030;-83
2022/06/03 12:15:34;;;;;;;3.83;2.55;;;;;;;23.33;34.66;101675.75;5035433;28;20511;-88
2022/06/03 12:18:06;;;;;;;4.78;2.50;;;;;;;23.47;34.12;101671.66;5035151;28;20540;-88
2022/06/03 12:20:31;;;;;;;4.97;2.28;;;;;;;23.73;33.54;101675.06;5035379;28;20044;-87
2022/06/03 12:23:17;;;;;;;8.80;3.20;;;;;;;23.65;31.19;101640.75;5035396;28;20480;-85
2022/06/03 12:25:51;;;;;;;3.40;2.47;;;;;;;23.94;31.34;101656.13;4954299;29;20106;-84
2022/06/03 12:28:42;;;;;;;5.25;2.85;;;;;;;24.11;31.14;101667.53;4954850;29;20542;-85
2022/06/03 12:31:36;;;;;;;5.07;2.80;;;;;;;24.13;32.51;101655.00;4958518;29;20047;-84
2022/06/03 12:34:25;;;;;;;5.68;3.45;;;;;;;24.09;30.70;101642.28;4917246;29;20166;-84
2022/06/03 12:50:11;;;;;;;4.70;2.55;;;;;;;24.78;32.31;101646.19;4956188;28;20039;-86
2022/06/03 13:03:39;;;;;;;4.40;2.47;;;;;;;25.10;32.02;101638.16;5034430;28;20103;-88
2022/06/03 13:06:14;;;;;;;5.63;2.53;;;;;;;24.54;31.72;101565.19;5033804;28;20053;-85
2022/06/03 13:12:39;;;;;;;10.05;2.80;;;;;;;24.80;30.78;101604.56;5034060;28;20138;-87
2022/06/03 13:15:23;;;;;;;3.83;2.30;;;;;;;25.08;31.84;101623.47;5034239;28;20033;-87
2022/06/03 13:21:39;;;;;;;4.30;3.00;;;;;;;25.24;29.48;101623.38;5034100;28;20445;-88
2022/06/03 13:24:40;;;;;;;3.30;2.30;;;;;;;25.48;28.19;101617.16;5033284;28;20083;-88
2022/06/03 13:27:40;;;;;;;5.85;2.40;;;;;;;25.58;28.21;101622.22;5033503;28;20148;-89
2022/06/03 13:30:18;;;;;;;4.68;2.22;;;;;;;24.54;29.79;101441.91;5033737;28;20495;-88
2022/06/03 13:32:46;;;;;;;3.88;2.33;;;;;;;25.53;27.96;101617.44;5033431;28;20441;-81
2022/06/03 13:35:18;;;;;;;3.75;2.05;;;;;;;25.54;29.42;101613.78;5033632;28;20029;-86
2022/06/03 13:37:49;;;;;;;3.63;2.58;;;;;;;25.39;28.28;101589.94;5033354;28;20072;-89
2022/06/03 13:40:21;;;;;;;4.53;2.13;;;;;;;25.68;27.75;101609.56;5033638;28;20033;-87
2022/06/03 13:43:02;;;;;;;3.72;2.20;;;;;;;25.84;26.96;101611.28;5032794;28;20025;-88
2022/06/03 13:45:51;;;;;;;3.53;2.40;;;;;;;25.91;28.35;101621.00;5033400;28;20489;-89
2022/06/03 13:48:24;;;;;;;3.63;2.20;;;;;;;25.92;27.40;101606.75;5033611;28;20137;-89
2022/06/03 13:50:50;;;;;;;3.90;2.22;;;;;;;25.79;27.09;101577.44;5015529;28;20028;-88
2022/06/03 13:53:25;;;;;;;3.15;2.00;;;;;;;25.93;28.48;101600.44;5015460;28;20037;-88
2022/06/03 13:56:05;;;;;;;4.20;2.10;;;;;;;25.93;29.14;101603.09;5015176;28;20491;-91
2022/06/03 13:58:36;;;;;;;6.05;2.78;;;;;;;25.77;28.38;101611.19;5032720;28;20037;-86
2022/06/03 14:01:08;;;;;;;5.40;3.05;;;;;;;25.65;28.37;101618.66;5033056;28;20021;-88
2022/06/03 14:04:02;;;;;;;5.32;3.03;;;;;;;25.69;29.20;101613.84;5032186;28;20504;-86
2022/06/03 14:06:38;;;;;;;4.15;2.95;;;;;;;25.45;27.89;101575.97;5015380;28;20040;-83
2022/06/03 14:09:23;;;;;;;5.88;2.60;;;;;;;25.88;29.25;101588.78;5032887;28;20030;-84
2022/06/03 14:11:56;;;;;;;5.82;2.05;;;;;;;25.86;30.12;101575.72;5015624;28;20561;-87
2022/06/03 14:14:52;;;;;;;4.82;2.75;;;;;;;25.85;29.16;101571.41;5033008;28;20022;-90
2022/06/03 14:17:29;;;;;;;3.67;2.35;;;;;;;25.95;30.75;101609.03;5015067;28;20108;-88
2022/06/03 14:20:07;;;;;;;4.32;2.30;;;;;;;25.71;30.02;101582.78;5014960;28;20117;-88
2022/06/03 14:22:42;;;;;;;4.68;2.10;;;;;;;25.66;30.14;101566.56;5032899;28;20413;-89
2022/06/03 14:25:29;;;;;;;3.03;2.20;;;;;;;25.89;30.93;101603.66;5032764;28;20028;-88
2022/06/03 14:28:01;;;;;;;4.38;2.10;;;;;;;25.90;31.96;101608.75;5014957;28;20105;-88
2022/06/03 14:30:29;;;;;;;3.65;2.30;;;;;;;26.05;30.64;101611.44;5032864;28;20430;-85
2022/06/03 14:32:58;;;;;;;4.10;2.58;;;;;;;26.36;29.13;101608.69;5032878;28;20465;-87
2022/06/03 14:35:31;;;;;;;3.35;2.17;;;;;;;26.27;29.10;101583.28;5032795;28;20025;-83
2022/06/03 14:38:17;;;;;;;4.30;2.45;;;;;;;26.30;29.91;101614.69;5032425;28;20060;-84
2022/06/03 14:40:46;;;;;;;3.70;2.60;;;;;;;25.96;29.65;101623.94;5032366;28;20034;-84
2022/06/03 14:43:19;;;;;;;4.32;2.40;;;;;;;25.91;31.49;101617.53;5024463;28;20092;-79
2022/06/03 14:45:49;;;;;;;5.50;2.42;;;;;;;25.66;30.70;101582.44;5032385;28;20021;-87
2022/06/03 14:48:23;;;;;;;4.77;2.20;;;;;;;25.80;31.64;101610.00;5032493;28;20095;-84
2022/06/03 14:50:57;;;;;;;2.55;2.22;;;;;;;25.20;31.94;101548.06;5032265;28;20033;-80
2022/06/03 14:53:30;;;;;;;4.35;2.90;;;;;;;25.30;31.95;101576.94;5032288;28;20025;-83
2022/06/03 14:56:08;;;;;;;6.22;3.08;;;;;;;25.32;31.81;101614.59;5032362;28;20014;-84
2022/06/03 14:58:39;;;;;;;6.57;2.97;;;;;;;25.00;31.57;101608.44;5032469;28;20041;-87
2022/06/03 15:01:13;;;;;;;5.32;2.58;;;;;;;25.00;33.09;101620.84;5032428;28;20370;-87
2022/06/03 15:03:44;;;;;;;4.63;2.72;;;;;;;25.00;33.17;101610.28;5032369;28;20029;-86
2022/06/03 15:06:33;;;;;;;4.63;2.75;;;;;;;25.06;32.66;101614.88;5032680;28;20025;-90
2022/06/03 15:09:17;;;;;;;4.18;2.90;;;;;;;25.08;33.85;101613.72;5032745;28;20025;-88
2022/06/03 15:11:46;;;;;;;6.10;3.33;;;;;;;24.43;32.80;101531.25;5014606;28;20084;-86
2022/06/03 15:14:17;;;;;;;5.55;2.83;;;;;;;24.83;34.24;101615.59;5014389;28;20029;-90
2022/06/03 15:17:15;;;;;;;;;;;;;;;24.91;33.83;101613.94;5035871;28;20028;-84
2022/06/03 15:20:36;;;;;;;5.82;3.20;;;;;;;24.81;33.22;101616.78;5036069;28;19968;-84
2022/06/03 15:23:05;;;;;;;7.18;3.03;;;;;;;23.86;34.21;101454.81;5035900;28;20124;-84
2022/06/03 15:25:52;;;;;;;5.88;3.00;;;;;;;24.67;34.64;101551.44;5035971;28;20033;-84
2022/06/03 15:28:20;;;;;;;5.28;2.67;;;;;;;24.85;34.85;101579.25;5035739;28;20017;-87
2022/06/03 15:31:25;;;;;;;3.92;2.70;;;;;;;25.02;33.76;101597.72;5035675;28;20092;-86
2022/06/03 15:33:55;;;;;;;7.00;3.03;;;;;;;25.12;33.38;101582.47;4974880;28;20037;-86
2022/06/03 15:36:24;;;;;;;6.30;2.97;;;;;;;25.09;33.21;101577.56;4974237;28;20042;-85
2022/06/03 15:38:52;;;;;;;4.32;2.83;;;;;;;25.08;34.47;101566.16;4974316;28;20051;-85
2022/06/03 15:41:21;;;;;;;4.20;2.80;;;;;;;25.18;34.54;101565.94;4974661;28;20046;-85
2022/06/03 15:43:54;;;;;;;6.25;3.10;;;;;;;25.34;33.64;101584.31;4974509;28;20034;-87
2022/06/03 15:46:56;;;;;;;3.85;3.00;;;;;;;25.42;33.66;101605.44;4974608;28;20364;-85
2022/06/03 15:49:23;;;;;;;5.57;3.30;;;;;;;25.13;33.26;101606.09;4917005;29;20036;-87
2022/06/03 15:51:49;;;;;;;4.43;3.08;;;;;;;25.12;34.14;101607.09;4916927;29;20473;-86
2022/06/03 15:54:27;;;;;;;4.97;3.33;;;;;;;24.99;33.30;101606.81;4917017;29;20095;-86
2022/06/03 15:57:07;;;;;;;5.80;2.88;;;;;;;24.85;33.54;101596.94;4916856;29;20044;-84
2022/06/03 15:59:53;;;;;;;4.15;3.00;;;;;;;24.87;34.48;101592.31;4916731;29;20064;-88
2022/06/03 16:02:24;;;;;;;4.07;3.10;;;;;;;24.67;33.71;101578.66;4916862;29;20048;-86
2022/06/03 16:05:16;;;;;;;4.72;3.22;;;;;;;24.56;34.36;101582.50;4916746;29;20123;-85
2022/06/03 16:08:06;;;;;;;4.40;3.00;;;;;;;24.36;35.66;101573.31;4933537;29;20043;-87
2022/06/03 16:10:38;;;;;;;6.40;3.50;;;;;;;24.47;35.36;101590.63;4954932;29;20031;-86
2022/06/03 16:13:49;;;;;;;5.78;3.10;;;;;;;24.38;34.93;101575.78;4954651;29;20047;-84
2022/06/03 16:16:31;;;;;;;5.45;3.17;;;;;;;24.28;34.73;101594.41;4954683;28;20047;-88
2022/06/03 16:18:56;;;;;;;5.03;3.20;;;;;;;24.08;34.71;101582.56;4955322;28;20479;-90
2022/06/03 16:21:28;;;;;;;5.13;3.00;;;;;;;24.02;35.01;101592.00;4956433;28;20023;-91
2022/06/03 16:24:22;;;;;;;3.58;2.80;;;;;;;23.92;35.94;101580.78;5014048;28;20045;-88
2022/06/03 16:26:56;;;;;;;5.30;2.97;;;;;;;23.75;35.22;101577.31;5033722;28;20030;-90
2022/06/03 16:29:48;;;;;;;4.57;3.20;;;;;;;23.72;35.79;101589.03;5034702;28;20021;-90
2022/06/03 16:32:16;;;;;;;5.00;3.13;;;;;;;23.64;35.76;101590.84;5043820;28;20029;-77
2022/06/03 16:35:18;;;;;;;5.35;3.08;;;;;;;23.60;35.99;101578.97;5055661;28;20103;-93
2022/06/03 16:38:03;;;;;;;3.97;2.90;;;;;;;23.56;37.28;101588.16;5052005;28;20100;-88
2022/06/03 16:40:46;;;;;;;4.00;3.40;;;;;;;23.58;36.76;101588.81;5039634;28;20057;-81
2022/06/03 16:43:21;;;;;;;4.63;2.90;;;;;;;23.61;36.44;101583.25;5034965;28;20385;-83
2022/06/03 16:46:06;;;;;;;5.40;3.53;;;;;;;23.46;36.21;101575.94;5034236;28;20037;-85
2022/06/03 16:48:57;;;;;;;4.05;3.00;;;;;;;23.63;36.96;101595.28;5035150;28;20412;-91
2022/06/03 16:51:58;;;;;;;5.75;3.33;;;;;;;23.62;36.22;101590.19;5035089;28;20033;-81
2022/06/03 16:54:27;;;;;;;6.45;3.50;;;;;;;23.44;36.42;101598.19;5034481;28;20077;-86
2022/06/03 16:57:08;;;;;;;5.03;3.13;;;;;;;23.43;36.56;101588.63;5036248;28;20058;-90